sensor_id;sensor_type;location;lat;lon;timestamp;pressure;altitude;pressure_sealevel;temperature;humidity
60061;BME280;45933;51.336;12.612;2023-02-28T00:02:15;101284.72;;;2.02;54.72
60061;BME280;45933;51.336;12.612;2023-02-28T00:04:42;101286.41;;;2.01;54.52
60061;BME280;45933;51.336;12.612;2023-02-28T00:07:08;101288.09;;;2.01;55.13
60061;BME280;45933;51.336;12.612;2023-02-28T00:09:33;101286.31;;;2.00;54.87
60061;BME280;45933;51.336;12.612;2023-02-28T00:11:59;101284.59;;;2.00;54.73
60061;BME280;45933;51.336;12.612;2023-02-28T00:14:24;101283.00;;;2.02;54.42
60061;BME280;45933;51.336;12.612;2023-02-28T00:16:49;101282.94;;;2.01;54.41
60061;BME280;45933;51.336;12.612;2023-02-28T00:19:15;101286.31;;;2.00;54.44
60061;BME280;45933;51.336;12.612;2023-02-28T00:21:40;101278.59;;;2.00;54.25
60061;BME280;45933;51.336;12.612;2023-02-28T00:24:06;101280.28;;;1.99;54.43
60061;BME280;45933;51.336;12.612;2023-02-28T00:26:32;101285.34;;;1.98;54.46
60061;BME280;45933;51.336;12.612;2023-02-28T00:28:57;101278.53;;;1.98;54.52
60061;BME280;45933;51.336;12.612;2023-02-28T00:31:23;101279.34;;;1.97;54.92
60061;BME280;45933;51.336;12.612;2023-02-28T00:33:48;101282.72;;;1.96;55.08
60061;BME280;45933;51.336;12.612;2023-02-28T00:36:13;101272.44;;;1.96;55.11
60061;BME280;45933;51.336;12.612;2023-02-28T00:38:40;101280.16;;;1.96;55.27
60061;BME280;45933;51.336;12.612;2023-02-28T00:41:06;101280.06;;;1.95;55.23
60061;BME280;45933;51.336;12.612;2023-02-28T00:43:37;101277.59;;;1.96;55.29
60061;BME280;45933;51.336;12.612;2023-02-28T00:46:02;101282.63;;;1.95;55.48
60061;BME280;45933;51.336;12.612;2023-02-28T00:48:28;101271.47;;;1.94;55.52
60061;BME280;45933;51.336;12.612;2023-02-28T00:50:53;101279.19;;;1.94;55.62
60061;BME280;45933;51.336;12.612;2023-02-28T00:53:19;101274.13;;;1.96;55.28
60061;BME280;45933;51.336;12.612;2023-02-28T00:55:44;101279.19;;;1.94;55.49
60061;BME280;45933;51.336;12.612;2023-02-28T00:58:09;101270.59;;;1.94;55.29
60061;BME280;45933;51.336;12.612;2023-02-28T01:00:35;101273.09;;;1.92;55.32
60061;BME280;45933;51.336;12.612;2023-02-28T01:03:00;101276.53;;;1.93;55.26
60061;BME280;45933;51.336;12.612;2023-02-28T01:05:25;101275.59;;;1.91;55.26
60061;BME280;45933;51.336;12.612;2023-02-28T01:07:51;101270.34;;;1.89;55.53
60061;BME280;45933;51.336;12.612;2023-02-28T01:10:16;101272.06;;;1.89;55.48
60061;BME280;45933;51.336;12.612;2023-02-28T01:12:41;101274.56;;;1.87;55.20
60061;BME280;45933;51.336;12.612;2023-02-28T01:15:10;101267.78;;;1.89;55.51
60061;BME280;45933;51.336;12.612;2023-02-28T01:17:35;101270.88;;;1.82;55.52
60061;BME280;45933;51.336;12.612;2023-02-28T01:20:01;101270.88;;;1.82;55.49
60061;BME280;45933;51.336;12.612;2023-02-28T01:22:26;101272.56;;;1.81;55.61
60061;BME280;45933;51.336;12.612;2023-02-28T01:24:52;101265.56;;;1.79;55.58
60061;BME280;45933;51.336;12.612;2023-02-28T01:27:17;101266.41;;;1.78;55.94
60061;BME280;45933;51.336;12.612;2023-02-28T01:29:43;101268.16;;;1.79;55.80
60061;BME280;45933;51.336;12.612;2023-02-28T01:32:08;101272.41;;;1.78;55.32
60061;BME280;45933;51.336;12.612;2023-02-28T01:34:34;101275.09;;;1.80;55.70
60061;BME280;45933;51.336;12.612;2023-02-28T01:36:59;101270.72;;;1.79;55.37
60061;BME280;45933;51.336;12.612;2023-02-28T01:39:25;101269.84;;;1.78;55.99
60061;BME280;45933;51.336;12.612;2023-02-28T01:41:51;101267.28;;;1.78;56.24
60061;BME280;45933;51.336;12.612;2023-02-28T01:44:59;101271.25;;;1.90;55.63
60061;BME280;45933;51.336;12.612;2023-02-28T01:47:34;101255.28;;;1.79;56.25
60061;BME280;45933;51.336;12.612;2023-02-28T01:50:04;101257.00;;;1.78;56.05
60061;BME280;45933;51.336;12.612;2023-02-28T01:52:31;101255.97;;;1.75;56.07
60061;BME280;45933;51.336;12.612;2023-02-28T01:54:59;101258.69;;;1.78;56.05
60061;BME280;45933;51.336;12.612;2023-02-28T01:57:30;101253.47;;;1.76;55.79
60061;BME280;45933;51.336;12.612;2023-02-28T02:00:05;101256.91;;;1.77;56.04
60061;BME280;45933;51.336;12.612;2023-02-28T02:02:33;101244.72;;;1.73;56.31
60061;BME280;45933;51.336;12.612;2023-02-28T02:05:03;101249.97;;;1.74;55.88
60061;BME280;45933;51.336;12.612;2023-02-28T02:07:32;101254.88;;;1.70;56.13
60061;BME280;45933;51.336;12.612;2023-02-28T02:18:25;101248.69;;;1.66;55.55
60061;BME280;45933;51.336;12.612;2023-02-28T02:21:09;101243.47;;;1.65;55.48
60061;BME280;45933;51.336;12.612;2023-02-28T02:24:04;101247.75;;;1.64;55.51
60061;BME280;45933;51.336;12.612;2023-02-28T02:26:52;101234.56;;;1.58;55.87
60061;BME280;45933;51.336;12.612;2023-02-28T02:32:32;101240.47;;;1.55;55.37
60061;BME280;45933;51.336;12.612;2023-02-28T02:35:28;101241.19;;;1.53;55.77
60061;BME280;45933;51.336;12.612;2023-02-28T02:38:11;101235.03;;;1.49;56.01
60061;BME280;45933;51.336;12.612;2023-02-28T02:43:22;101241.44;;;1.41;56.48
60061;BME280;45933;51.336;12.612;2023-02-28T02:46:04;101239.84;;;1.43;56.04
60061;BME280;45933;51.336;12.612;2023-02-28T02:48:34;101236.25;;;1.40;56.79
60061;BME280;45933;51.336;12.612;2023-02-28T02:51:04;101236.19;;;1.38;56.48
60061;BME280;45933;51.336;12.612;2023-02-28T02:53:41;101235.31;;;1.38;56.10
60061;BME280;45933;51.336;12.612;2023-02-28T02:56:09;101235.94;;;1.34;56.51
60061;BME280;45933;51.336;12.612;2023-02-28T02:58:40;101239.47;;;1.36;56.53
60061;BME280;45933;51.336;12.612;2023-02-28T03:01:11;101237.63;;;1.33;56.06
60061;BME280;45933;51.336;12.612;2023-02-28T03:03:37;101244.22;;;1.28;56.52
60061;BME280;45933;51.336;12.612;2023-02-28T03:06:04;101239.97;;;1.28;56.28
60061;BME280;45933;51.336;12.612;2023-02-28T03:08:34;101233.09;;;1.27;56.48
60061;BME280;45933;51.336;12.612;2023-02-28T03:11:02;101236.28;;;1.23;56.75
60061;BME280;45933;51.336;12.612;2023-02-28T03:21:43;101241.03;;;1.16;56.31
60061;BME280;45933;51.336;12.612;2023-02-28T03:24:31;101247.94;;;1.17;56.31
60061;BME280;45933;51.336;12.612;2023-02-28T03:27:07;101246.91;;;1.13;56.63
60061;BME280;45933;51.336;12.612;2023-02-28T03:29:42;101250.28;;;1.12;56.80
60061;BME280;45933;51.336;12.612;2023-02-28T03:32:21;101249.16;;;1.07;56.73
60061;BME280;45933;51.336;12.612;2023-02-28T03:35:14;101250.09;;;1.09;57.00
60061;BME280;45933;51.336;12.612;2023-02-28T03:37:40;101253.66;;;1.11;56.74
60061;BME280;45933;51.336;12.612;2023-02-28T03:40:13;101258.00;;;1.12;56.79
60061;BME280;45933;51.336;12.612;2023-02-28T03:42:43;101253.66;;;1.11;56.94
60061;BME280;45933;51.336;12.612;2023-02-28T03:45:17;101255.50;;;1.14;56.65
60061;BME280;45933;51.336;12.612;2023-02-28T03:47:57;101256.53;;;1.17;56.87
60061;BME280;45933;51.336;12.612;2023-02-28T03:50:37;101252.28;;;1.18;56.50
60061;BME280;45933;51.336;12.612;2023-02-28T03:55:57;101254.91;;;1.19;56.71
60061;BME280;45933;51.336;12.612;2023-02-28T03:59:00;101252.59;;;1.24;56.03
60061;BME280;45933;51.336;12.612;2023-02-28T04:01:35;101253.31;;;1.21;56.89
60061;BME280;45933;51.336;12.612;2023-02-28T04:04:01;101255.72;;;1.18;56.74
60061;BME280;45933;51.336;12.612;2023-02-28T04:06:27;101249.72;;;1.18;56.91
60061;BME280;45933;51.336;12.612;2023-02-28T04:08:55;101254.84;;;1.18;57.08
60061;BME280;45933;51.336;12.612;2023-02-28T04:11:32;101258.53;;;1.23;56.50
60061;BME280;45933;51.336;12.612;2023-02-28T04:13:58;101258.28;;;1.18;56.80
60061;BME280;45933;51.336;12.612;2023-02-28T04:16:23;101256.59;;;1.19;56.86
60061;BME280;45933;51.336;12.612;2023-02-28T04:18:49;101256.59;;;1.19;56.81
60061;BME280;45933;51.336;12.612;2023-02-28T04:21:14;101252.34;;;1.19;57.06
60061;BME280;45933;51.336;12.612;2023-02-28T04:23:39;101259.16;;;1.19;57.03
60061;BME280;45933;51.336;12.612;2023-02-28T04:26:05;101259.16;;;1.19;56.71
60061;BME280;45933;51.336;12.612;2023-02-28T04:28:31;101260.88;;;1.18;56.83
60061;BME280;45933;51.336;12.612;2023-02-28T04:30:58;101269.44;;;1.19;57.01
60061;BME280;45933;51.336;12.612;2023-02-28T04:33:24;101271.13;;;1.18;56.81
60061;BME280;45933;51.336;12.612;2023-02-28T04:36:04;101267.13;;;1.23;56.36
60061;BME280;45933;51.336;12.612;2023-02-28T04:38:35;101266.16;;;1.21;56.94
60061;BME280;45933;51.336;12.612;2023-02-28T04:41:01;101267.75;;;1.19;56.85
60061;BME280;45933;51.336;12.612;2023-02-28T04:43:30;101269.63;;;1.22;56.69
60061;BME280;45933;51.336;12.612;2023-02-28T04:45:56;101266.06;;;1.20;56.89
60061;BME280;45933;51.336;12.612;2023-02-28T04:48:26;101269.63;;;1.22;56.77
60061;BME280;45933;51.336;12.612;2023-02-28T04:50:52;101269.44;;;1.19;56.22
60061;BME280;45933;51.336;12.612;2023-02-28T04:53:18;101264.31;;;1.19;56.61
60061;BME280;45933;51.336;12.612;2023-02-28T04:55:44;101269.44;;;1.19;56.52
60061;BME280;45933;51.336;12.612;2023-02-28T04:58:10;101269.44;;;1.19;56.58
60061;BME280;45933;51.336;12.612;2023-02-28T05:00:35;101269.50;;;1.20;56.50
60061;BME280;45933;51.336;12.612;2023-02-28T05:03:01;101269.44;;;1.19;56.49
60061;BME280;45933;51.336;12.612;2023-02-28T05:05:26;101272.81;;;1.18;56.43
60061;BME280;45933;51.336;12.612;2023-02-28T05:07:51;101264.25;;;1.17;56.14
60061;BME280;45933;51.336;12.612;2023-02-28T05:10:18;101272.75;;;1.16;56.48
60061;BME280;45933;51.336;12.612;2023-02-28T05:12:44;101277.09;;;1.17;56.39
60061;BME280;45933;51.336;12.612;2023-02-28T05:15:13;101277.09;;;1.17;56.34
60061;BME280;45933;51.336;12.612;2023-02-28T05:17:39;101280.34;;;1.15;56.48
60061;BME280;45933;51.336;12.612;2023-02-28T05:20:05;101281.09;;;1.12;56.50
60061;BME280;45933;51.336;12.612;2023-02-28T05:22:31;101284.47;;;1.11;56.21
60061;BME280;45933;51.336;12.612;2023-02-28T05:24:57;101274.09;;;1.10;56.08
60061;BME280;45933;51.336;12.612;2023-02-28T05:27:22;101282.53;;;1.07;55.80
60061;BME280;45933;51.336;12.612;2023-02-28T05:29:48;101290.19;;;1.06;56.35
60061;BME280;45933;51.336;12.612;2023-02-28T05:32:13;101285.75;;;1.03;56.46
60061;BME280;45933;51.336;12.612;2023-02-28T05:34:39;101286.38;;;0.99;56.34
60061;BME280;45933;51.336;12.612;2023-02-28T05:37:06;101284.44;;;0.95;56.14
60061;BME280;45933;51.336;12.612;2023-02-28T05:39:32;101291.94;;;0.90;56.44
60061;BME280;45933;51.336;12.612;2023-02-28T05:41:58;101292.50;;;0.85;56.04
60061;BME280;45933;51.336;12.612;2023-02-28T05:44:23;101295.72;;;0.81;56.20
60061;BME280;45933;51.336;12.612;2023-02-28T05:46:49;101293.78;;;0.76;56.27
60061;BME280;45933;51.336;12.612;2023-02-28T05:49:14;101296.91;;;0.71;56.23
60061;BME280;45933;51.336;12.612;2023-02-28T05:51:40;101300.09;;;0.67;56.63
60061;BME280;45933;51.336;12.612;2023-02-28T05:54:06;101300.66;;;0.61;56.18
60061;BME280;45933;51.336;12.612;2023-02-28T05:56:31;101303.69;;;0.54;56.27
60061;BME280;45933;51.336;12.612;2023-02-28T05:58:57;101307.69;;;0.49;56.36
60061;BME280;45933;51.336;12.612;2023-02-28T06:01:30;101311.75;;;0.45;56.65
60061;BME280;45933;51.336;12.612;2023-02-28T06:03:56;101313.13;;;0.39;56.41
60061;BME280;45933;51.336;12.612;2023-02-28T06:06:21;101317.13;;;0.34;56.51
60061;BME280;45933;51.336;12.612;2023-02-28T06:08:47;101322.06;;;0.31;56.48
60061;BME280;45933;51.336;12.612;2023-02-28T06:11:12;101324.28;;;0.24;56.37
60061;BME280;45933;51.336;12.612;2023-02-28T06:13:38;101326.69;;;0.21;56.50
60061;BME280;45933;51.336;12.612;2023-02-28T06:16:03;101330.78;;;0.18;56.73
60061;BME280;45933;51.336;12.612;2023-02-28T06:18:29;101333.16;;;0.15;56.97
60061;BME280;45933;51.336;12.612;2023-02-28T06:20:54;101333.88;;;0.12;56.80
60061;BME280;45933;51.336;12.612;2023-02-28T06:23:21;101336.25;;;0.09;56.80
60061;BME280;45933;51.336;12.612;2023-02-28T06:25:46;101331.75;;;0.05;56.80
60061;BME280;45933;51.336;12.612;2023-02-28T06:28:12;101336.00;;;0.05;57.27
60061;BME280;45933;51.336;12.612;2023-02-28T06:30:38;101338.47;;;0.03;56.74
60061;BME280;45933;51.336;12.612;2023-02-28T06:33:04;101342.66;;;0.01;56.78
60061;BME280;45933;51.336;12.612;2023-02-28T06:35:29;101350.34;;;0.01;57.30
60061;BME280;45933;51.336;12.612;2023-02-28T06:37:55;101341.75;;;0.01;57.06
60061;BME280;45933;51.336;12.612;2023-02-28T06:40:20;101350.22;;;-0.01;57.20
60061;BME280;45933;51.336;12.612;2023-02-28T06:42:46;101356.34;;;0.02;57.86
60061;BME280;45933;51.336;12.612;2023-02-28T06:45:11;101353.59;;;-0.02;57.75
60061;BME280;45933;51.336;12.612;2023-02-28T06:47:38;101350.22;;;-0.01;58.07
60061;BME280;45933;51.336;12.612;2023-02-28T06:50:05;101353.69;;;0.00;57.85
60061;BME280;45933;51.336;12.612;2023-02-28T06:52:30;101360.59;;;0.01;57.81
60061;BME280;45933;51.336;12.612;2023-02-28T06:54:59;101362.50;;;0.05;58.19
60061;BME280;45933;51.336;12.612;2023-02-28T06:57:29;101366.75;;;0.05;58.15
60061;BME280;45933;51.336;12.612;2023-02-28T06:59:57;101364.38;;;0.08;58.07
60061;BME280;45933;51.336;12.612;2023-02-28T07:02:23;101368.69;;;0.09;58.25
60061;BME280;45933;51.336;12.612;2023-02-28T07:04:49;101374.91;;;0.12;58.10
60061;BME280;45933;51.336;12.612;2023-02-28T07:07:14;101376.84;;;0.16;57.98
60061;BME280;45933;51.336;12.612;2023-02-28T07:09:39;101370.19;;;0.20;57.96
60061;BME280;45933;51.336;12.612;2023-02-28T07:12:05;101367.81;;;0.23;57.89
60061;BME280;45933;51.336;12.612;2023-02-28T07:14:30;101377.53;;;0.29;57.61
60061;BME280;45933;51.336;12.612;2023-02-28T07:16:55;101375.13;;;0.32;57.00
60061;BME280;45933;51.336;12.612;2023-02-28T07:19:20;101374.69;;;0.39;56.93
60061;BME280;45933;51.336;12.612;2023-02-28T07:21:46;101379.34;;;0.46;57.11
60061;BME280;45933;51.336;12.612;2023-02-28T07:24:11;101381.47;;;0.53;57.61
60061;BME280;45933;51.336;12.612;2023-02-28T07:26:36;101381.88;;;0.61;57.42
60061;BME280;45933;51.336;12.612;2023-02-28T07:29:02;101381.59;;;0.71;57.09
60061;BME280;45933;51.336;12.612;2023-02-28T07:31:27;101378.66;;;0.80;57.03
60061;BME280;45933;51.336;12.612;2023-02-28T07:33:53;101385.13;;;0.89;56.36
60061;BME280;45933;51.336;12.612;2023-02-28T07:36:19;101381.25;;;0.96;55.92
60061;BME280;45933;51.336;12.612;2023-02-28T07:38:46;101383.50;;;1.06;55.53
60061;BME280;45933;51.336;12.612;2023-02-28T07:41:13;101382.13;;;1.13;56.21
60061;BME280;45933;51.336;12.612;2023-02-28T07:43:39;101385.03;;;1.19;55.40
60061;BME280;45933;51.336;12.612;2023-02-28T07:46:09;101383.75;;;1.27;55.85
60061;BME280;45933;51.336;12.612;2023-02-28T07:48:35;101383.25;;;1.34;55.37
60061;BME280;45933;51.336;12.612;2023-02-28T07:51:01;101386.16;;;1.40;56.17
60061;BME280;45933;51.336;12.612;2023-02-28T07:53:27;101378.75;;;1.46;55.22
60061;BME280;45933;51.336;12.612;2023-02-28T07:55:57;101374.09;;;1.55;55.21
60061;BME280;45933;51.336;12.612;2023-02-28T07:58:23;101376.91;;;1.60;54.28
60061;BME280;45933;51.336;12.612;2023-02-28T08:00:49;101382.28;;;1.65;53.74
60061;BME280;45933;51.336;12.612;2023-02-28T08:03:17;101382.72;;;1.74;54.08
60061;BME280;45933;51.336;12.612;2023-02-28T08:05:43;101382.31;;;1.82;52.99
60061;BME280;45933;51.336;12.612;2023-02-28T08:08:08;101386.16;;;1.91;52.17
60061;BME280;45933;51.336;12.612;2023-02-28T08:10:34;101373.69;;;1.98;52.19
60061;BME280;45933;51.336;12.612;2023-02-28T08:12:59;101381.69;;;2.04;52.45
60061;BME280;45933;51.336;12.612;2023-02-28T08:15:25;101379.59;;;2.14;51.59
60061;BME280;45933;51.336;12.612;2023-02-28T08:17:50;101379.06;;;2.21;51.55
60061;BME280;45933;51.336;12.612;2023-02-28T08:20:15;101380.41;;;2.30;51.22
60061;BME280;45933;51.336;12.612;2023-02-28T08:22:42;101367.16;;;2.41;51.02
60061;BME280;45933;51.336;12.612;2023-02-28T08:25:08;101377.47;;;2.58;51.49
60061;BME280;45933;51.336;12.612;2023-02-28T08:27:33;101378.22;;;2.93;51.59
60061;BME280;45933;51.336;12.612;2023-02-28T08:29:59;101380.41;;;3.42;51.20
60061;BME280;45933;51.336;12.612;2023-02-28T08:32:24;101372.66;;;4.02;50.32
60061;BME280;45933;51.336;12.612;2023-02-28T08:34:50;101366.78;;;4.70;48.73
60061;BME280;45933;51.336;12.612;2023-02-28T08:37:15;101365.97;;;5.41;48.08
60061;BME280;45933;51.336;12.612;2023-02-28T08:39:40;101365.78;;;6.10;47.34
60061;BME280;45933;51.336;12.612;2023-02-28T08:42:06;101359.31;;;6.78;44.88
60061;BME280;45933;51.336;12.612;2023-02-28T08:44:31;101371.72;;;7.49;44.96
60061;BME280;45933;51.336;12.612;2023-02-28T08:46:56;101367.38;;;8.16;44.32
60061;BME280;45933;51.336;12.612;2023-02-28T08:49:22;101368.88;;;8.77;42.73
60061;BME280;45933;51.336;12.612;2023-02-28T08:51:47;101358.84;;;9.37;42.17
60061;BME280;45933;51.336;12.612;2023-02-28T08:54:12;101370.25;;;9.89;40.69
60061;BME280;45933;51.336;12.612;2023-02-28T08:56:38;101364.13;;;10.36;37.84
60061;BME280;45933;51.336;12.612;2023-02-28T08:59:04;101368.84;;;10.61;35.08
60061;BME280;45933;51.336;12.612;2023-02-28T09:01:30;101363.16;;;10.90;32.73
60061;BME280;45933;51.336;12.612;2023-02-28T09:03:56;101365.59;;;11.47;36.77
60061;BME280;45933;51.336;12.612;2023-02-28T09:06:24;101367.66;;;11.77;34.57
60061;BME280;45933;51.336;12.612;2023-02-28T09:08:49;101363.59;;;12.04;35.01
60061;BME280;45933;51.336;12.612;2023-02-28T09:11:15;101366.47;;;12.38;34.91
60061;BME280;45933;51.336;12.612;2023-02-28T09:13:41;101361.44;;;12.61;33.24
60061;BME280;45933;51.336;12.612;2023-02-28T09:16:10;101363.25;;;12.80;32.77
60061;BME280;45933;51.336;12.612;2023-02-28T09:18:35;101355.56;;;13.11;31.72
60061;BME280;45933;51.336;12.612;2023-02-28T09:21:13;101353.09;;;13.40;32.64
60061;BME280;45933;51.336;12.612;2023-02-28T09:23:40;101354.88;;;13.53;30.81
60061;BME280;45933;51.336;12.612;2023-02-28T09:26:07;101362.78;;;13.79;31.56
60061;BME280;45933;51.336;12.612;2023-02-28T09:28:33;101360.19;;;13.90;30.31
60061;BME280;45933;51.336;12.612;2023-02-28T09:30:58;101357.56;;;14.28;30.70
60061;BME280;45933;51.336;12.612;2023-02-28T09:33:24;101361.09;;;14.48;30.19
60061;BME280;45933;51.336;12.612;2023-02-28T09:35:51;101353.16;;;14.70;30.47
60061;BME280;45933;51.336;12.612;2023-02-28T09:38:22;101354.09;;;14.56;27.53
60061;BME280;45933;51.336;12.612;2023-02-28T09:40:52;101357.50;;;14.86;26.54
60061;BME280;45933;51.336;12.612;2023-02-28T09:43:22;101347.84;;;14.97;26.86
60061;BME280;45933;51.336;12.612;2023-02-28T09:45:54;101351.28;;;15.11;28.01
60061;BME280;45933;51.336;12.612;2023-02-28T09:48:28;101346.81;;;15.36;28.47
60061;BME280;45933;51.336;12.612;2023-02-28T09:53:48;101353.75;;;15.48;26.05
60061;BME280;45933;51.336;12.612;2023-02-28T09:56:19;101356.22;;;15.76;26.85
60061;BME280;45933;51.336;12.612;2023-02-28T10:01:42;101345.50;;;16.06;24.76
60061;BME280;45933;51.336;12.612;2023-02-28T10:06:46;101343.81;;;15.96;24.79
60061;BME280;45933;51.336;12.612;2023-02-28T10:09:24;101346.31;;;16.13;24.13
60061;BME280;45933;51.336;12.612;2023-02-28T10:11:53;101342.75;;;16.18;23.38
60061;BME280;45933;51.336;12.612;2023-02-28T10:14:22;101345.41;;;16.15;23.09
60061;BME280;45933;51.336;12.612;2023-02-28T10:17:09;101347.00;;;16.35;22.35
60061;BME280;45933;51.336;12.612;2023-02-28T10:20:00;101346.94;;;16.41;22.99
60061;BME280;45933;51.336;12.612;2023-02-28T10:23:02;101346.06;;;16.42;25.57
60061;BME280;45933;51.336;12.612;2023-02-28T10:25:34;101344.31;;;16.39;24.94
60061;BME280;45933;51.336;12.612;2023-02-28T10:28:11;101341.38;;;16.73;25.56
60061;BME280;45933;51.336;12.612;2023-02-28T10:30:40;101339.56;;;16.80;24.03
60061;BME280;45933;51.336;12.612;2023-02-28T10:33:13;101340.28;;;16.92;22.69
60061;BME280;45933;51.336;12.612;2023-02-28T10:35:42;101330.50;;;17.04;22.54
60061;BME280;45933;51.336;12.612;2023-02-28T10:38:18;101335.28;;;17.40;24.34
60061;BME280;45933;51.336;12.612;2023-02-28T10:40:44;101323.84;;;17.40;23.06
60061;BME280;45933;51.336;12.612;2023-02-28T10:46:01;101326.91;;;17.74;22.79
60061;BME280;45933;51.336;12.612;2023-02-28T10:48:36;101324.41;;;17.63;21.39
60061;BME280;45933;51.336;12.612;2023-02-28T10:51:03;101333.06;;;17.74;22.04
60061;BME280;45933;51.336;12.612;2023-02-28T10:53:37;101317.91;;;17.87;22.72
60061;BME280;45933;51.336;12.612;2023-02-28T10:58:50;101318.84;;;18.36;24.46
60061;BME280;45933;51.336;12.612;2023-02-28T11:03:46;101311.44;;;18.54;22.02
60061;BME280;45933;51.336;12.612;2023-02-28T11:08:45;101303.81;;;18.41;20.33
60061;BME280;45933;51.336;12.612;2023-02-28T11:11:12;101304.63;;;18.43;20.78
60061;BME280;45933;51.336;12.612;2023-02-28T11:13:38;101296.78;;;18.38;20.59
60061;BME280;45933;51.336;12.612;2023-02-28T11:16:06;101302.13;;;18.37;20.92
60061;BME280;45933;51.336;12.612;2023-02-28T11:21:04;101301.13;;;18.42;21.16
60061;BME280;45933;51.336;12.612;2023-02-28T11:23:33;101287.47;;;18.68;21.28
60061;BME280;45933;51.336;12.612;2023-02-28T11:26:03;101288.69;;;18.49;20.87
60061;BME280;45933;51.336;12.612;2023-02-28T11:28:35;101294.09;;;18.89;22.28
60061;BME280;45933;51.336;12.612;2023-02-28T11:33:52;101293.81;;;19.40;22.26
60061;BME280;45933;51.336;12.612;2023-02-28T11:36:26;101288.19;;;19.55;21.41
60061;BME280;45933;51.336;12.612;2023-02-28T11:38:59;101295.50;;;19.44;20.50
60061;BME280;45933;51.336;12.612;2023-02-28T11:44:17;101296.53;;;19.77;20.65
60061;BME280;45933;51.336;12.612;2023-02-28T11:46:56;101293.88;;;19.77;19.19
60061;BME280;45933;51.336;12.612;2023-02-28T11:57:33;101286.84;;;18.99;21.41
60061;BME280;45933;51.336;12.612;2023-02-28T12:00:08;101295.09;;;18.36;21.01
60061;BME280;45933;51.336;12.612;2023-02-28T12:05:29;101280.81;;;17.96;22.20
60061;BME280;45933;51.336;12.612;2023-02-28T12:08:10;101287.00;;;17.95;22.23
60061;BME280;45933;51.336;12.612;2023-02-28T12:13:49;101275.16;;;18.18;22.24
60061;BME280;45933;51.336;12.612;2023-02-28T12:16:34;101269.78;;;18.24;22.90
60061;BME280;45933;51.336;12.612;2023-02-28T12:19:20;101274.69;;;18.44;22.84
60061;BME280;45933;51.336;12.612;2023-02-28T12:22:05;101268.19;;;18.62;22.45
60061;BME280;45933;51.336;12.612;2023-02-28T12:24:39;101261.06;;;18.67;21.76
60061;BME280;45933;51.336;12.612;2023-02-28T12:27:13;101272.06;;;18.89;21.38
60061;BME280;45933;51.336;12.612;2023-02-28T12:30:05;101264.31;;;19.21;22.52
60061;BME280;45933;51.336;12.612;2023-02-28T12:32:38;101256.00;;;18.99;20.29
60061;BME280;45933;51.336;12.612;2023-02-28T12:35:11;101263.50;;;19.18;20.83
60061;BME280;45933;51.336;12.612;2023-02-28T12:38:02;101249.94;;;19.33;21.61
60061;BME280;45933;51.336;12.612;2023-02-28T12:40:41;101253.84;;;19.17;21.05
60061;BME280;45933;51.336;12.612;2023-02-28T12:43:09;101247.59;;;19.21;20.87
60061;BME280;45933;51.336;12.612;2023-02-28T12:45:48;101243.66;;;19.00;20.19
60061;BME280;45933;51.336;12.612;2023-02-28T12:48:20;101247.63;;;18.79;20.53
60061;BME280;45933;51.336;12.612;2023-02-28T12:50:47;101245.22;;;18.67;20.67
60061;BME280;45933;51.336;12.612;2023-02-28T12:53:27;101238.28;;;18.60;20.18
60061;BME280;45933;51.336;12.612;2023-02-28T12:56:15;101240.78;;;18.67;21.70
60061;BME280;45933;51.336;12.612;2023-02-28T12:58:47;101234.25;;;18.42;20.50
60061;BME280;45933;51.336;12.612;2023-02-28T13:04:43;101224.81;;;18.75;21.82
60061;BME280;45933;51.336;12.612;2023-02-28T13:10:00;101216.25;;;18.61;20.63
60061;BME280;45933;51.336;12.612;2023-02-28T13:12:27;101229.91;;;18.39;20.37
60061;BME280;45933;51.336;12.612;2023-02-28T13:15:16;101220.16;;;18.86;21.43
60061;BME280;45933;51.336;12.612;2023-02-28T13:17:48;101228.81;;;18.94;21.38
60061;BME280;45933;51.336;12.612;2023-02-28T13:20:16;101227.16;;;18.89;20.62
60061;BME280;45933;51.336;12.612;2023-02-28T13:22:45;101218.03;;;19.02;20.70
60061;BME280;45933;51.336;12.612;2023-02-28T13:27:52;101221.78;;;19.32;20.55
60061;BME280;45933;51.336;12.612;2023-02-28T13:33:37;101215.44;;;19.75;21.83
60061;BME280;45933;51.336;12.612;2023-02-28T13:36:26;101215.56;;;19.33;19.01
60061;BME280;45933;51.336;12.612;2023-02-28T13:58:39;101194.06;;;19.48;20.77
60061;BME280;45933;51.336;12.612;2023-02-28T14:06:39;101197.09;;;18.94;20.06
60061;BME280;45933;51.336;12.612;2023-02-28T14:11:39;101187.59;;;18.86;20.11
60061;BME280;45933;51.336;12.612;2023-02-28T14:14:05;101182.50;;;18.78;19.87
60061;BME280;45933;51.336;12.612;2023-02-28T14:16:40;101183.13;;;18.89;20.78
60061;BME280;45933;51.336;12.612;2023-02-28T14:19:15;101184.91;;;18.89;21.38
60061;BME280;45933;51.336;12.612;2023-02-28T14:21:59;101185.81;;;18.88;21.06
60061;BME280;45933;51.336;12.612;2023-02-28T14:33:22;101175.69;;;18.65;20.81
60061;BME280;45933;51.336;12.612;2023-02-28T14:36:17;101179.34;;;18.59;20.56
60061;BME280;45933;51.336;12.612;2023-02-28T14:38:52;101175.22;;;18.46;20.45
60061;BME280;45933;51.336;12.612;2023-02-28T14:41:39;101181.47;;;18.42;21.46
60061;BME280;45933;51.336;12.612;2023-02-28T14:44:21;101181.81;;;18.23;21.01
60061;BME280;45933;51.336;12.612;2023-02-28T14:46:50;101187.22;;;18.17;20.74
60061;BME280;45933;51.336;12.612;2023-02-28T14:49:30;101184.03;;;18.00;20.71
60061;BME280;45933;51.336;12.612;2023-02-28T14:52:19;101176.16;;;17.97;21.37
60061;BME280;45933;51.336;12.612;2023-02-28T14:54:45;101178.44;;;17.67;20.72